createdAt,value
2022-09-13T00:01:02.301Z,1.48
2022-09-13T00:03:29.408Z,1.63
2022-09-13T00:05:56.241Z,1.70
2022-09-13T00:08:23.895Z,1.73
2022-09-13T00:10:50.570Z,1.38
2022-09-13T00:13:17.549Z,1.40
2022-09-13T00:15:49.290Z,1.77
2022-09-13T00:18:17.591Z,1.70
2022-09-13T00:20:44.351Z,1.65
2022-09-13T00:23:11.731Z,1.77
2022-09-13T00:25:39.070Z,1.70
2022-09-13T00:28:06.016Z,1.48
2022-09-13T00:30:33.347Z,1.55
2022-09-13T00:33:04.245Z,1.60
2022-09-13T00:35:31.731Z,1.63
2022-09-13T00:38:00.139Z,1.52
2022-09-13T00:40:27.026Z,1.45
2022-09-13T00:42:53.659Z,1.70
2022-09-13T00:45:20.573Z,1.60
2022-09-13T00:47:56.035Z,1.58
2022-09-13T00:50:30.822Z,1.48
2022-09-13T00:52:57.410Z,1.65
2022-09-13T00:55:38.339Z,1.40
2022-09-13T00:58:09.894Z,1.50
2022-09-13T01:00:37.333Z,2.17
2022-09-13T01:03:08.091Z,1.63
2022-09-13T01:05:42.590Z,1.98
2022-09-13T01:08:15.884Z,1.60
2022-09-13T01:10:44.461Z,1.73
2022-09-13T01:13:18.570Z,1.88
2022-09-13T01:15:45.693Z,1.40
2022-09-13T01:18:12.946Z,1.75
2022-09-13T01:21:13.975Z,1.50
2022-09-13T01:23:46.381Z,1.90
2022-09-13T01:26:38.163Z,1.52
2022-09-13T01:29:19.810Z,1.83
2022-09-13T01:31:55.473Z,1.42
2022-09-13T01:34:38.628Z,1.60
2022-09-13T01:37:15.676Z,1.40
2022-09-13T01:39:55.410Z,1.80
2022-09-13T01:42:54.314Z,1.50
2022-09-13T01:45:47.951Z,1.55
2022-09-13T01:49:02.930Z,1.67
2022-09-13T01:52:04.779Z,1.70
2022-09-13T01:54:39.606Z,1.50
2022-09-13T01:57:12.591Z,1.42
2022-09-13T01:59:46.362Z,1.70
2022-09-13T02:02:18.181Z,1.50
2022-09-13T02:04:50.166Z,2.13
2022-09-13T02:07:27.627Z,1.58
2022-09-13T02:10:04.910Z,1.98
2022-09-13T02:12:35.992Z,1.60
2022-09-13T02:15:09.493Z,1.58
2022-09-13T02:17:43.815Z,1.50
2022-09-13T02:20:19.804Z,1.80
2022-09-13T02:59:04.646Z,1.75
2022-09-13T03:01:32.227Z,1.65
2022-09-13T03:03:59.075Z,1.80
2022-09-13T03:06:27.947Z,1.90
2022-09-13T03:09:03.667Z,1.60
2022-09-13T03:11:59.548Z,1.58
2022-09-13T03:14:34.091Z,1.95
2022-09-13T03:17:28.371Z,1.85
2022-09-13T03:20:12.974Z,1.88
2022-09-13T03:22:39.592Z,2.00
2022-09-13T03:25:25.996Z,1.70
2022-09-13T03:28:04.102Z,1.95
2022-09-13T03:30:35.011Z,1.70
2022-09-13T03:33:23.820Z,1.70
2022-09-13T03:36:04.966Z,1.95
2022-09-13T03:38:42.746Z,1.70
2022-09-13T03:41:36.337Z,1.90
2022-09-13T03:44:08.433Z,1.95
2022-09-13T03:46:42.066Z,1.73
2022-09-13T03:49:14.123Z,1.95
2022-09-13T03:51:42.943Z,1.70
2022-09-13T03:54:22.178Z,1.70
2022-09-13T03:57:22.242Z,2.00
2022-09-13T03:59:50.180Z,1.92
2022-09-13T04:02:18.112Z,1.70
2022-09-13T04:04:46.264Z,1.52
2022-09-13T04:07:16.002Z,1.88
2022-09-13T04:09:42.770Z,1.80
2022-09-13T04:12:14.102Z,1.50
2022-09-13T04:14:42.080Z,1.92
2022-09-13T04:17:08.894Z,1.90
2022-09-13T04:19:35.720Z,1.90
2022-09-13T04:22:02.680Z,2.10
2022-09-13T04:24:30.942Z,2.00
2022-09-13T04:26:57.903Z,1.95
2022-09-13T04:29:26.458Z,2.08
2022-09-13T04:31:55.539Z,1.98
2022-09-13T04:34:22.989Z,2.30
2022-09-13T04:36:51.072Z,1.92
2022-09-13T04:39:18.091Z,1.98
2022-09-13T04:41:48.732Z,2.10
2022-09-13T04:44:17.401Z,2.05
2022-09-13T04:46:48.093Z,1.70
2022-09-13T04:49:16.593Z,1.80
2022-09-13T04:51:43.489Z,2.10
2022-09-13T04:54:15.211Z,2.20
2022-09-13T04:56:43.603Z,2.00
2022-09-13T04:59:11.758Z,2.40
2022-09-13T05:01:38.854Z,2.47
2022-09-13T05:04:07.072Z,2.00
2022-09-13T05:06:34.216Z,2.10
2022-09-13T05:09:00.974Z,1.90
2022-09-13T05:11:28.729Z,2.13
2022-09-13T05:14:00.168Z,2.30
2022-09-13T05:16:29.797Z,2.60
2022-09-13T05:18:57.119Z,2.20
2022-09-13T05:21:24.137Z,2.20
2022-09-13T05:23:52.232Z,2.17
2022-09-13T05:26:19.514Z,2.33
2022-09-13T05:28:46.424Z,2.55
2022-09-13T05:31:17.671Z,2.35
2022-09-13T05:33:46.365Z,2.20
2022-09-13T05:36:14.027Z,2.35
2022-09-13T05:38:40.807Z,2.47
2022-09-13T05:41:07.487Z,2.30
2022-09-13T05:43:36.179Z,2.22
2022-09-13T05:46:12.893Z,2.25
2022-09-13T05:48:40.443Z,2.55
2022-09-13T05:51:12.902Z,2.13
2022-09-13T05:53:41.815Z,2.22
2022-09-13T05:56:16.327Z,2.25
2022-09-13T05:58:45.713Z,2.20
2022-09-13T06:01:13.066Z,2.30
2022-09-13T06:03:39.873Z,2.45
2022-09-13T06:06:07.237Z,2.30
2022-09-13T06:08:34.690Z,2.58
2022-09-13T06:11:11.722Z,2.00
2022-09-13T06:13:39.202Z,2.00
2022-09-13T06:16:09.443Z,2.35
2022-09-13T06:18:36.132Z,2.30
2022-09-13T06:21:08.574Z,2.40
2022-09-13T06:26:07.673Z,2.25
2022-09-13T06:31:13.234Z,2.50
2022-09-13T06:33:42.063Z,2.47
2022-09-13T06:36:20.300Z,2.50
2022-09-13T06:38:48.842Z,2.60
2022-09-13T06:41:20.609Z,2.10
2022-09-13T06:43:51.814Z,2.33
2022-09-13T06:46:24.674Z,2.10
2022-09-13T06:48:52.718Z,2.30
2022-09-13T06:51:24.170Z,2.22
2022-09-13T06:53:51.962Z,2.30
2022-09-13T06:56:24.337Z,2.30
2022-09-13T07:01:28.713Z,2.22
2022-09-13T07:04:07.021Z,2.70
2022-09-13T07:06:36.578Z,2.63
2022-09-13T07:09:05.157Z,2.80
2022-09-13T07:11:34.567Z,2.83
2022-09-13T07:14:01.489Z,2.20
2022-09-13T07:16:30.956Z,2.63
2022-09-13T07:19:11.083Z,3.38
2022-09-13T07:21:38.011Z,2.28
2022-09-13T07:24:05.081Z,2.30
2022-09-13T07:26:31.968Z,2.40
2022-09-13T07:29:00.680Z,2.38
2022-09-13T07:31:32.727Z,2.20
2022-09-13T07:34:02.128Z,2.30
2022-09-13T07:36:31.294Z,1.98
2022-09-13T07:38:58.771Z,2.03
2022-09-13T07:41:27.149Z,2.38
2022-09-13T07:43:54.187Z,2.67
2022-09-13T07:46:23.118Z,1.95
2022-09-13T07:48:52.942Z,2.53
2022-09-13T07:51:22.133Z,2.17
2022-09-13T07:53:53.691Z,1.85
2022-09-13T07:56:24.166Z,1.88
2022-09-13T07:58:52.861Z,2.00
2022-09-13T08:01:22.630Z,1.73
2022-09-13T08:03:54.266Z,1.90
2022-09-13T08:06:21.656Z,1.98
2022-09-13T08:08:48.504Z,1.60
2022-09-13T08:11:24.733Z,1.50
2022-09-13T08:13:52.256Z,1.60
2022-09-13T08:16:21.502Z,1.70
2022-09-13T08:18:50.943Z,1.48
2022-09-13T08:21:17.884Z,1.95
2022-09-13T08:23:45.334Z,1.48
2022-09-13T08:26:12.398Z,1.52
2022-09-13T08:28:40.367Z,1.95
2022-09-13T08:31:13.945Z,1.83
2022-09-13T08:33:48.349Z,1.65
2022-09-13T08:36:16.873Z,1.85
2022-09-13T08:38:48.167Z,2.45
2022-09-13T08:41:27.919Z,1.73
2022-09-13T08:44:09.985Z,1.70
2022-09-13T08:46:44.243Z,2.45
2022-09-13T08:49:43.211Z,1.90
2022-09-13T08:52:15.619Z,2.45
2022-09-13T08:57:39.062Z,2.63
2022-09-13T09:00:22.974Z,1.95
2022-09-13T09:03:06.023Z,1.92
2022-09-13T09:05:44.764Z,2.05
2022-09-13T09:08:52.935Z,1.70
2022-09-13T09:11:42.095Z,1.90
2022-09-13T09:14:16.212Z,1.77
2022-09-13T09:16:50.687Z,1.67
2022-09-13T09:19:27.310Z,1.88
2022-09-13T09:21:53.977Z,1.70
2022-09-13T09:24:24.121Z,1.70
2022-09-13T09:26:56.995Z,1.90
2022-09-13T09:29:26.914Z,1.85
2022-09-13T09:32:21.129Z,1.60
2022-09-13T09:35:05.892Z,1.42
2022-09-13T09:37:34.650Z,1.75
2022-09-13T09:40:07.896Z,1.60
2022-09-13T09:42:49.304Z,1.95
2022-09-13T09:45:24.706Z,1.70
2022-09-13T09:47:52.051Z,1.50
2022-09-13T09:50:29.946Z,1.73
2022-09-13T09:53:02.504Z,1.58
2022-09-13T09:55:31.613Z,1.80
2022-09-13T09:58:06.689Z,1.95
2022-09-13T10:00:36.153Z,1.70
2022-09-13T10:03:25.104Z,1.65
2022-09-13T10:05:51.727Z,1.55
2022-09-13T10:08:33.097Z,2.13
2022-09-13T10:11:00.568Z,1.88
2022-09-13T10:13:31.562Z,2.10
2022-09-13T10:16:07.620Z,1.60
2022-09-13T10:18:45.237Z,1.67
2022-09-13T10:21:18.733Z,1.90
2022-09-13T10:23:50.371Z,1.65
2022-09-13T10:26:20.717Z,1.77
2022-09-13T10:28:52.218Z,1.95
2022-09-13T10:31:21.090Z,1.63
2022-09-13T10:33:50.930Z,1.90
2022-09-13T10:36:51.010Z,1.98
2022-09-13T10:39:22.518Z,1.60
2022-09-13T10:42:10.109Z,1.60
2022-09-13T10:44:52.066Z,1.55
2022-09-13T10:47:23.311Z,2.90
2022-09-13T10:49:59.387Z,1.52
2022-09-13T10:52:27.157Z,1.48
2022-09-13T10:54:55.480Z,1.60
2022-09-13T10:57:37.151Z,1.58
2022-09-13T11:00:11.292Z,1.67
2022-09-13T11:02:54.948Z,1.52
2022-09-13T11:05:37.939Z,1.50
2022-09-13T11:08:19.247Z,1.48
2022-09-13T11:11:06.896Z,1.70
2022-09-13T11:13:44.163Z,1.27
2022-09-13T11:16:29.329Z,1.45
2022-09-13T11:19:24.422Z,1.90
2022-09-13T11:22:05.913Z,1.60
2022-09-13T11:24:35.767Z,1.20
2022-09-13T11:27:50.637Z,1.60
2022-09-13T11:30:27.753Z,1.48
2022-09-13T11:33:03.218Z,1.52
2022-09-13T11:35:48.731Z,1.42
2022-09-13T11:38:47.650Z,1.38
2022-09-13T11:41:46.439Z,1.33
2022-09-13T11:44:35.287Z,1.42
2022-09-13T11:47:42.094Z,1.33
2022-09-13T11:50:33.841Z,1.23
2022-09-13T11:53:03.314Z,1.38
2022-09-13T11:56:05.176Z,1.60
2022-09-13T11:59:11.155Z,1.60
2022-09-13T12:01:45.837Z,1.95
2022-09-13T12:04:20.848Z,1.73
2022-09-13T12:06:54.039Z,1.25
2022-09-13T12:09:32.303Z,1.30
2022-09-13T12:12:12.299Z,1.10
2022-09-13T12:14:51.602Z,1.35
2022-09-13T12:17:29.815Z,1.85
2022-09-13T12:20:01.004Z,1.60
2022-09-13T12:22:32.659Z,1.57
2022-09-13T12:25:05.893Z,1.83
2022-09-13T12:27:43.763Z,1.42
2022-09-13T12:30:17.838Z,1.50
2022-09-13T12:32:46.045Z,1.60
2022-09-13T12:35:36.063Z,1.60
2022-09-13T12:38:21.171Z,1.30
2022-09-13T12:41:09.362Z,1.83
2022-09-13T12:44:01.678Z,1.95
2022-09-13T12:47:06.564Z,1.20
2022-09-13T12:49:45.422Z,1.20
2022-09-13T12:52:40.898Z,1.40
2022-09-13T12:55:52.530Z,1.52
2022-09-13T12:58:34.336Z,1.40
2022-09-13T13:01:19.861Z,1.52
2022-09-13T13:04:02.462Z,1.48
2022-09-13T13:06:48.922Z,1.50
2022-09-13T13:09:42.395Z,1.30
2022-09-13T13:12:12.467Z,1.55
2022-09-13T13:14:39.024Z,1.70
2022-09-13T13:17:42.380Z,1.95
2022-09-13T13:20:39.833Z,1.65
2022-09-13T13:23:18.399Z,1.73
2022-09-13T13:26:20.475Z,1.73
2022-09-13T13:28:52.082Z,1.75
2022-09-13T13:31:25.194Z,1.80
2022-09-13T13:33:53.830Z,1.77
2022-09-13T13:36:44.759Z,1.73
2022-09-13T13:39:34.682Z,2.00
2022-09-13T13:42:05.117Z,2.33
2022-09-13T13:44:31.997Z,1.70
2022-09-13T13:47:07.881Z,1.85
2022-09-13T13:49:35.087Z,2.08
2022-09-13T13:52:11.622Z,2.00
2022-09-13T13:54:47.414Z,1.60
2022-09-13T13:57:20.993Z,2.00
2022-09-13T13:59:51.661Z,1.77
2022-09-13T14:02:23.412Z,1.50
2022-09-13T14:05:08.363Z,1.60
2022-09-13T14:07:38.098Z,1.70
2022-09-13T14:10:10.153Z,1.90
2022-09-13T14:15:55.431Z,1.42
2022-09-13T14:18:44.593Z,1.50
2022-09-13T14:21:26.822Z,1.50
2022-09-13T14:26:42.393Z,1.67
2022-09-13T14:29:09.738Z,2.10
2022-09-13T14:31:37.510Z,1.40
2022-09-13T14:34:04.333Z,1.75
2022-09-13T14:36:31.004Z,1.67
2022-09-13T14:39:00.409Z,2.00
2022-09-13T14:41:34.027Z,1.70
2022-09-13T14:44:28.669Z,1.67
2022-09-13T14:47:19.204Z,2.00
2022-09-13T14:49:57.439Z,2.45
2022-09-13T14:52:42.882Z,2.30
2022-09-13T14:55:16.867Z,1.60
2022-09-13T14:57:52.458Z,1.95
2022-09-13T15:00:22.677Z,1.80
2022-09-13T15:03:00.942Z,1.67
2022-09-13T15:05:32.118Z,1.60
2022-09-13T15:07:59.036Z,1.63
2022-09-13T15:10:31.863Z,1.20
2022-09-13T15:12:58.460Z,1.30
2022-09-13T15:15:30.690Z,1.38
2022-09-13T15:17:59.955Z,2.60
2022-09-13T15:20:30.671Z,2.33
2022-09-13T15:22:58.211Z,1.20
2022-09-13T15:25:29.375Z,1.10
2022-09-13T15:27:57.543Z,1.20
2022-09-13T15:30:32.403Z,1.23
2022-09-13T15:33:05.492Z,1.20
2022-09-13T15:35:38.292Z,1.40
2022-09-13T15:38:28.293Z,2.30
2022-09-13T15:41:02.464Z,1.38
2022-09-13T15:43:30.803Z,1.58
2022-09-13T15:45:59.113Z,1.60
2022-09-13T15:48:32.728Z,1.42
2022-09-13T15:51:10.830Z,1.48
2022-09-13T15:53:39.697Z,1.48
2022-09-13T15:56:08.027Z,1.58
2022-09-13T15:58:36.047Z,2.00
2022-09-13T16:01:03.398Z,2.45
2022-09-13T16:03:31.014Z,2.22
2022-09-13T16:05:58.540Z,2.10
2022-09-13T16:08:29.361Z,1.80
2022-09-13T16:10:56.212Z,2.15
2022-09-13T16:13:23.239Z,5.95
2022-09-13T16:15:50.619Z,3.00
2022-09-13T16:18:19.362Z,4.57
2022-09-13T16:20:46.472Z,3.45
2022-09-13T16:23:13.202Z,3.50
2022-09-13T16:25:39.857Z,3.97
2022-09-13T16:28:07.439Z,3.83
2022-09-13T16:30:34.374Z,3.67
2022-09-13T16:33:01.055Z,3.42
2022-09-13T16:35:30.683Z,3.47
2022-09-13T16:37:59.078Z,2.40
2022-09-13T16:40:25.839Z,2.70
2022-09-13T16:42:54.252Z,2.80
2022-09-13T16:45:21.026Z,2.70
2022-09-13T16:47:48.534Z,2.22
2022-09-13T16:50:15.776Z,4.95
2022-09-13T16:52:42.545Z,4.03
2022-09-13T16:55:10.432Z,4.63
2022-09-13T16:57:37.270Z,4.68
2022-09-13T17:00:09.399Z,5.43
2022-09-13T17:05:05.106Z,3.90
2022-09-13T17:07:32.331Z,3.58
2022-09-13T17:10:00.431Z,2.42
2022-09-13T17:12:27.682Z,2.35
2022-09-13T17:14:54.971Z,2.25
2022-09-13T17:17:21.691Z,2.40
2022-09-13T17:19:48.402Z,2.60
2022-09-13T17:22:16.437Z,2.30
2022-09-13T17:24:43.636Z,2.35
2022-09-13T17:27:11.041Z,2.53
2022-09-13T17:29:37.863Z,3.20
2022-09-13T17:32:05.759Z,3.25
2022-09-13T17:34:34.901Z,3.25
2022-09-13T17:37:03.804Z,4.90
2022-09-13T17:39:31.150Z,5.32
2022-09-13T17:41:58.515Z,4.78
2022-09-13T17:44:25.177Z,4.00
2022-09-13T17:46:52.007Z,3.22
2022-09-13T17:49:18.835Z,3.58
2022-09-13T17:51:45.640Z,3.28
2022-09-13T17:54:13.488Z,3.25
2022-09-13T17:56:43.658Z,3.45
2022-09-13T17:59:17.806Z,3.65
2022-09-13T18:01:50.269Z,3.53
2022-09-13T18:04:19.437Z,3.78
2022-09-13T18:06:46.979Z,4.00
2022-09-13T18:09:15.515Z,4.03
2022-09-13T18:11:42.911Z,3.70
2022-09-13T18:14:17.890Z,4.32
2022-09-13T18:16:45.518Z,3.92
2022-09-13T18:19:12.478Z,3.50
2022-09-13T18:21:39.603Z,3.47
2022-09-13T18:24:07.998Z,3.17
2022-09-13T18:26:35.210Z,3.30
2022-09-13T18:29:07.239Z,3.25
2022-09-13T18:31:35.584Z,3.60
2022-09-13T18:34:05.590Z,4.30
2022-09-13T18:36:33.336Z,3.45
2022-09-13T18:39:04.695Z,3.70
2022-09-13T18:41:42.452Z,3.07
2022-09-13T18:44:13.661Z,3.42
2022-09-13T18:46:41.109Z,3.20
2022-09-13T18:49:09.088Z,2.90
2022-09-13T18:51:38.348Z,3.08
2022-09-13T18:54:07.578Z,2.58
2022-09-13T18:56:35.174Z,3.35
2022-09-13T18:59:05.041Z,3.00
2022-09-13T19:01:34.485Z,3.17
2022-09-13T19:04:16.363Z,3.50
2022-09-13T19:06:48.775Z,3.83
2022-09-13T19:09:16.347Z,3.47
2022-09-13T19:11:47.873Z,4.60
2022-09-13T19:14:23.953Z,3.72
2022-09-13T19:16:52.781Z,3.33
2022-09-13T19:19:19.662Z,3.70
2022-09-13T19:21:46.664Z,3.58
2022-09-13T19:24:20.107Z,3.42
2022-09-13T19:26:50.435Z,3.10
2022-09-13T19:29:19.791Z,2.80
2022-09-13T19:31:48.543Z,3.42
2022-09-13T19:34:17.302Z,3.85
2022-09-13T19:36:44.173Z,3.47
2022-09-13T19:39:11.508Z,3.10
2022-09-13T19:41:39.071Z,2.85
2022-09-13T19:44:07.911Z,3.50
2022-09-13T19:46:37.558Z,3.00
2022-09-13T19:49:06.046Z,2.88
2022-09-13T19:51:35.819Z,3.00
2022-09-13T19:54:03.617Z,3.00
2022-09-13T19:56:34.296Z,2.72
2022-09-13T19:59:01.977Z,3.08
2022-09-13T20:01:32.748Z,3.00
2022-09-13T20:04:06.367Z,3.00
2022-09-13T20:06:42.343Z,2.80
2022-09-13T20:09:10.198Z,2.97
2022-09-13T20:11:42.200Z,3.63
2022-09-13T20:14:10.062Z,3.47
2022-09-13T20:16:38.552Z,3.10
2022-09-13T20:19:23.661Z,2.95
2022-09-13T20:21:53.446Z,2.70
2022-09-13T20:24:20.165Z,2.97
2022-09-13T20:26:47.669Z,3.22
2022-09-13T20:29:14.927Z,3.40
2022-09-13T20:31:41.554Z,3.60
2022-09-13T20:34:11.000Z,3.40
2022-09-13T20:36:38.328Z,3.03
2022-09-13T20:39:06.438Z,2.90
2022-09-13T20:41:33.455Z,3.00
2022-09-13T20:44:00.837Z,3.42
2022-09-13T20:46:27.901Z,3.10
2022-09-13T20:48:54.538Z,3.13
2022-09-13T20:51:24.280Z,3.45
2022-09-13T20:53:55.963Z,3.35
2022-09-13T20:56:23.576Z,3.17
2022-09-13T20:58:57.446Z,2.90
2022-09-13T21:01:25.021Z,3.47
2022-09-13T21:03:53.618Z,3.50
2022-09-13T21:06:22.181Z,3.30
2022-09-13T21:08:50.213Z,3.33
2022-09-13T21:11:18.542Z,3.55
2022-09-13T21:13:45.099Z,3.92
2022-09-13T21:16:18.092Z,3.10
2022-09-13T21:18:45.763Z,3.00
2022-09-13T21:21:21.379Z,3.38
2022-09-13T21:23:48.282Z,3.47
2022-09-13T21:26:17.810Z,2.90
2022-09-13T21:28:44.759Z,3.03
2022-09-13T21:31:19.603Z,3.00
2022-09-13T21:33:48.408Z,3.33
2022-09-13T21:36:15.191Z,2.80
2022-09-13T21:38:41.926Z,2.80
2022-09-13T21:41:12.640Z,3.60
2022-09-13T21:43:39.482Z,3.60
2022-09-13T21:46:10.268Z,3.10
2022-09-13T21:48:37.082Z,3.00
2022-09-13T21:51:08.335Z,3.35
2022-09-13T21:53:37.372Z,3.13
2022-09-13T21:56:09.057Z,3.25
2022-09-13T21:58:37.017Z,3.00
2022-09-13T22:01:10.552Z,3.20
2022-09-13T22:03:39.861Z,2.90
2022-09-13T22:06:07.899Z,3.95
2022-09-13T22:08:37.507Z,3.10
2022-09-13T22:11:06.020Z,3.35
2022-09-13T22:13:34.671Z,2.83
2022-09-13T22:16:09.362Z,3.05
2022-09-13T22:18:36.591Z,3.00
2022-09-13T22:21:12.206Z,3.08
2022-09-13T22:23:39.319Z,3.00
2022-09-13T22:26:08.127Z,2.88
2022-09-13T22:28:35.743Z,2.53
2022-09-13T22:31:10.781Z,2.53
2022-09-13T22:33:38.218Z,2.40
2022-09-13T22:36:08.610Z,2.47
2022-09-13T22:38:36.782Z,2.20
2022-09-13T22:41:09.759Z,2.20
2022-09-13T22:43:36.731Z,2.20
2022-09-13T22:46:06.066Z,2.08
2022-09-13T22:48:33.205Z,1.95
2022-09-13T22:50:59.848Z,2.00
2022-09-13T22:53:26.836Z,1.80
2022-09-13T22:55:53.943Z,1.95
2022-09-13T22:58:20.723Z,1.67
2022-09-13T23:00:47.524Z,2.03
2022-09-13T23:03:14.970Z,2.00
2022-09-13T23:05:51.032Z,1.88
2022-09-13T23:08:17.939Z,2.08
2022-09-13T23:10:44.560Z,2.25
2022-09-13T23:13:11.196Z,2.03
2022-09-13T23:15:37.850Z,1.80
2022-09-13T23:18:05.464Z,1.98
2022-09-13T23:20:32.246Z,2.00
2022-09-13T23:22:58.846Z,1.75
2022-09-13T23:25:25.486Z,2.10
2022-09-13T23:27:52.113Z,3.22
2022-09-13T23:30:18.759Z,2.20
2022-09-13T23:32:51.091Z,2.00
2022-09-13T23:37:48.650Z,1.88
2022-09-13T23:40:15.576Z,1.95
2022-09-13T23:42:42.434Z,2.00
2022-09-13T23:45:09.492Z,2.03
2022-09-13T23:47:36.086Z,1.67
2022-09-13T23:50:02.707Z,1.73
2022-09-13T23:52:29.431Z,1.92
2022-09-13T23:54:57.040Z,2.05
2022-09-13T23:57:23.997Z,1.80
2022-09-13T23:59:51.773Z,1.70
